• Join FlightAware (Why Join?)
  • Login
  • US Flag 
02:17AM EDT


 

Airport Tracker/Info


-or-


 

Live Flight TrackerFlight Track Log ✈ DAL1890 ✈ 28-Jun-2013 ✈ KDFW - KATL

Flight Track Log - Related Links

Times and Time Zones

All times are in EDT time to prevent confusion due to time zone crossing. See the DAL1890 flight status page for this flight to view local times or setup timezone preferences in your user account.

Time Position Orientation Groundspeed Altitude Reporting Facility
EDT Latitude Longitude Course Direction KTS MPH feet Rate Location/Type
06:54AM 32.8833 -97.0333 65° Northeast 172 198 1,300  Level Dallas / Fort Worth TRACON
06:55AM 32.8000 -97.0333 180° South 238 274 3,400 1,860 Climbing Dallas / Fort Worth TRACON
06:56AM 32.7667 -96.9667 121° Southeast 281 323 5,900 2,280 Climbing Dallas / Fort Worth TRACON
06:57AM 32.7260 -96.6722 68° East  Level FlightAware Approximate
06:58AM 32.7710 -96.5387 65° Northeast  Level FlightAware Approximate
06:58AM 32.7839 -96.8178 82° East 299 344 10,000  Level Fort Worth Center
06:59AM 32.8214 -96.4079 65° Northeast  Level FlightAware Approximate
06:59AM 32.8042 -96.6992 78° East 312 359 11,500  Level Fort Worth Center
07:00AM 32.8264 -96.5753 78° East 362 417 13,000 1,680 Climbing Fort Worth Center
07:01AM 32.8464 -96.4467 79° East 386 444 14,900 1,800 Climbing Fort Worth Center
07:02AM 32.8661 -96.3103 80° East 408 470 16,600 1,620 Climbing Fort Worth Center
07:03AM 32.8692 -96.1817 88° East 420 483 18,200 1,680 Climbing Fort Worth Center
07:04AM 32.8717 -96.0208 89° East 434 499 20,000 1,680 Climbing Fort Worth Center
07:05AM 32.8742 -95.8847 89° East 441 507 21,600 1,260 Climbing Fort Worth Center
07:06AM 32.8700 -95.7167 92° East 449 517 22,600 1,140 Climbing Fort Worth Center
07:08AM 32.8531 -95.4103 94° East 479 551 25,100 1,380 Climbing Fort Worth Center
07:09AM 32.8439 -95.2425 94° East 479 551 26,900 1,560 Climbing Fort Worth Center
07:10AM 32.8392 -95.0867 92° East 474 545 28,300 1,380 Climbing Fort Worth Center
07:11AM 32.8319 -94.9336 93° East 469 540 29,700 1,200 Climbing Fort Worth Center
07:12AM 32.8247 -94.7831 93° East 463 533 30,800 960 Climbing Fort Worth Center
07:13AM 32.8156 -94.6500 95° East 458 527 31,700 840 Climbing Fort Worth Center
07:14AM 32.8081 -94.4969 93° East 458 527 32,500 600 Climbing Fort Worth Center
07:15AM 32.8003 -94.3514 94° East 458 527 33,000 240 Climbing Fort Worth Center
07:16AM 32.7944 -94.2033 93° East 458 527 33,000  Level Fort Worth Center
07:17AM 32.7864 -94.0528 94° East 458 527 33,000  Level Fort Worth Center
07:18AM 32.7781 -93.9025 94° East 458 527 33,000  Level Fort Worth Center
07:19AM 32.7697 -93.7544 94° East 458 527 33,000  Level Fort Worth Center
07:20AM 32.7611 -93.6067 94° East 458 527 33,000  Level Fort Worth Center
07:21AM 32.7525 -93.4564 94° East 458 527 33,000  Level Fort Worth Center
07:22AM 32.7436 -93.3086 94° East 458 527 33,000  Level Fort Worth Center
07:23AM 32.7364 -93.1558 93° East 458 527 33,000  Level Fort Worth Center
07:24AM 32.7267 -93.0008 94° East 458 527 33,000  Level Fort Worth Center
07:25AM 32.7172 -92.8481 94° East 458 527 33,000  Level Fort Worth Center
07:26AM 32.7072 -92.6931 94° East 458 527 33,000  Level Fort Worth Center
07:27AM 32.6992 -92.5381 93° East 458 527 33,000  Level Fort Worth Center
07:28AM 32.6869 -92.3833 95° East 463 533 33,000  Level Fort Worth Center
07:30AM 32.6644 -92.0725 95° East 474 545 33,000  Level Memphis Center
07:31AM 32.6478 -91.9167 97° East 474 545 33,000  Level Memphis Center
07:32AM 32.6369 -91.7586 95° East 479 551 33,000  Level Memphis Center
07:33AM 32.6261 -91.6053 95° East 479 551 33,000  Level Memphis Center
07:34AM 32.6150 -91.4522 95° East 479 551 33,000  Level Memphis Center
07:35AM 32.5994 -91.2944 97° East 479 551 33,000  Level Memphis Center
07:36AM 32.5903 -91.1439 94° East 479 551 33,000  Level Memphis Center
07:37AM 32.5764 -90.9858 96° East 474 545 33,000  Level Memphis Center
07:38AM 32.5644 -90.8331 95° East 474 545 33,000  Level Memphis Center
07:39AM 32.5506 -90.6803 96° East 474 545 33,000  Level Memphis Center
07:40AM 32.5381 -90.5397 96° East 474 545 33,000  Level Memphis Center
07:41AM 32.5236 -90.3844 96° East 469 540 33,000  Level Memphis Center
07:42AM 32.5111 -90.2317 96° East 469 540 33,000  Level Memphis Center
07:43AM 32.4961 -90.0764 96° East 469 540 33,000  Level Memphis Center
07:44AM 32.4811 -89.9214 97° East 469 540 33,000  Level Memphis Center
07:45AM 32.4681 -89.7664 96° East 469 540 33,000  Level Memphis Center
07:46AM 32.4547 -89.6089 96° East 469 540 33,000  Level Memphis Center
07:47AM 32.4411 -89.4589 96° East 469 540 33,000  Level Memphis Center
07:48AM 32.4250 -89.2892 96° East 469 540 33,000  Level Memphis Center
07:49AM 32.4111 -89.1342 96° East 469 540 33,000  Level Memphis Center
07:50AM 32.3950 -88.9794 97° East 469 540 33,000  Level Memphis Center
07:51AM 32.3806 -88.8247 96° East 469 540 33,000  Level Memphis Center
07:53AM 32.4064 -88.5703 83° East 460 529 33,000  Level Atlanta Center
07:54AM 32.4247 -88.4139 82° East 465 535 33,000  Level Atlanta Center
07:55AM 32.4444 -88.2622 81° East 465 535 33,000  Level Atlanta Center
07:56AM 32.4600 -88.1103 83° East 465 535 33,000  Level Atlanta Center
07:57AM 32.4778 -87.9536 82° East 465 535 33,000 -480 Level Atlanta Center
07:58AM 32.5031 -87.8069 78° East 470 541 32,100 -1,020 Descending Atlanta Center
07:59AM 32.5369 -87.6558 75° East 463 533 31,000 -900 Descending Atlanta Center
08:00AM 32.5703 -87.5092 75° East 463 533 30,300 -720 Descending Atlanta Center
08:01AM 32.6014 -87.3625 76° East 463 533 29,600 -720 Descending Atlanta Center
08:02AM 32.6325 -87.2181 76° East 463 533 28,900 -720 Descending Atlanta Center
08:03AM 32.6653 -87.0739 75° East 453 521 28,200 -900 Descending Atlanta Center
08:04AM 32.6958 -86.9292 76° East 447 514 27,100 -600 Descending Atlanta Center
08:05AM 32.7283 -86.7822 75° East 452 520 27,000 -60 Descending Atlanta Center
08:06AM 32.7589 -86.6347 76° East 452 520 27,000  Level Atlanta Center
08:07AM 32.7889 -86.4875 76° East 452 520 27,000  Level Atlanta Center
08:08AM 32.8211 -86.3375 76° East 452 520 27,000  Level Atlanta Center
08:09AM 32.8528 -86.1925 75° East 443 510 27,000  Level Atlanta Center
08:10AM 32.8844 -86.0450 76° East 449 517 27,000 -300 Level Atlanta Center
08:11AM 32.9264 -85.9025 71° East 449 517 26,400 -1,320 Descending Atlanta Center
08:12AM 32.9703 -85.7647 69° East 454 522 24,400 -2,160 Descending Atlanta Center
08:13AM 33.0097 -85.6292 71° East 448 516 22,100 -2,400 Descending Atlanta Center
08:14AM 33.0467 -85.4983 71° East 431 496 19,700 -2,220 Descending Atlanta Center
08:15AM 33.0836 -85.3750 70° East 406 467 17,700 -2,160 Descending Atlanta Center
08:16AM 33.1225 -85.2517 69° East 394 453 15,400 -1,920 Descending Atlanta Center
08:17AM 33.1569 -85.1281 72° East 389 448 13,900 -780 Descending Atlanta Center
08:18AM 33.1975 -85.0144 67° East 382 440 13,900 -540 Level Atlanta Center
08:19AM 33.2650 -84.9208 49° Northeast 377 434 12,900 -1,020 Descending Atlanta Center
08:20AM 33.3347 -84.8294 48° Northeast 364 419 11,900 -480 Descending Atlanta Center
08:21AM 33.4019 -84.7431 47° Northeast 359 413 12,000  Climbing Atlanta Center
08:22AM 33.4672 -84.6514 49° Northeast 359 413 11,900  Descending Atlanta Center
08:23AM 33.5281 -84.5722 47° Northeast 342 394 12,000 -300 Climbing Atlanta Center
08:24AM 33.5450 -84.4900 76° East 263 303 11,300 -1,200 Descending Atlanta Center
08:25AM 33.5453 -84.4053 90° East 251 289 9,600 -2,280 Descending Atlanta Center
08:26AM 33.5500 -84.2833 87° East 251 289 6,000 -2,160 Descending Atlanta TRACON
08:27AM 33.5833 -84.2333 51° Northeast 214 246 4,500 -1,440 Descending Atlanta TRACON
08:28AM 33.6000 -84.2667 301° West 169 194 3,300 -1,080 Descending Atlanta TRACON
08:29AM 33.6167 -84.3167 292° West 180 207 2,500 -840 Descending Atlanta TRACON
08:30AM 33.6167 -84.3667 270° West 157 181 1,700 -840 Descending Atlanta TRACON